Time;durP1;ratioP1;P1;durP2;ratioP2;P2;SDS_P1;SDS_P2;PMS_P1;PMS_P2;Temp;Humidity;BMP_temperature;BMP_pressure;BME280_temperature;BME280_humidity;BME280_pressure;Samples;Min_cycle;Max_cycle;Signal;HPM_P1;HPM_P2
2021/03/01 00:00:32;;;;;;;20.05;7.15;;;;;;;;;;4902815;29;20067;-95
2021/03/01 00:02:59;;;;;;;20.33;7.43;;;;;;;;;;4902953;29;20072;-95
2021/03/01 00:05:26;;;;;;;24.17;7.53;;;;;;;;;;4887737;29;20063;-95
2021/03/01 00:07:55;;;;;;;23.20;8.23;;;;;;;;;;4903949;29;20029;-95
2021/03/01 00:10:24;;;;;;;22.65;7.15;;;;;;;;;;4903406;29;20087;-95
2021/03/01 00:12:51;;;;;;;22.88;6.97;;;;;;;;;;4904228;29;20028;-96
2021/03/01 00:15:19;;;;;;;25.08;8.00;;;;;;;;;;4902989;29;20764;-94
2021/03/01 00:17:46;;;;;;;22.30;7.43;;;;;;;;;;4902028;29;20040;-95
2021/03/01 00:20:18;;;;;;;21.70;6.90;;;;;;;;;;4903408;29;20071;-94
2021/03/01 00:22:56;;;;;;;22.02;7.05;;;;;;;;;;4903543;29;20068;-95
2021/03/01 00:25:29;;;;;;;21.38;7.43;;;;;;;;;;4896597;29;20051;-95
2021/03/01 00:27:55;;;;;;;20.75;6.93;;;;;;;;;;4902059;29;20033;-95
2021/03/01 00:30:22;;;;;;;26.33;7.30;;;;;;;;;;4886010;29;20041;-95
2021/03/01 00:32:48;;;;;;;22.65;7.15;;;;;;;;;;4886339;29;20092;-94
2021/03/01 00:35:17;;;;;;;25.80;6.97;;;;;;;;;;4903041;29;20068;-95
2021/03/01 00:37:44;;;;;;;26.80;7.50;;;;;;;;;;4901943;29;20032;-94
2021/03/01 00:40:11;;;;;;;17.95;6.63;;;;;;;;;;4893775;29;20025;-95
2021/03/01 00:42:38;;;;;;;18.75;7.38;;;;;;;;;;4881124;29;20052;-95
2021/03/01 00:45:06;;;;;;;31.23;6.85;;;;;;;;;;4884274;29;20473;-95
2021/03/01 00:47:33;;;;;;;21.77;6.95;;;;;;;;;;4883007;29;20072;-95
2021/03/01 00:50:03;;;;;;;24.52;6.75;;;;;;;;;;4867733;29;20045;-95
2021/03/01 00:52:29;;;;;;;16.65;6.32;;;;;;;;;;4883230;29;20461;-94
2021/03/01 00:54:56;;;;;;;14.63;5.82;;;;;;;;;;4867126;29;20032;-94
2021/03/01 00:57:27;;;;;;;19.17;6.70;;;;;;;;;;4882348;29;20041;-95
2021/03/01 00:59:54;;;;;;;19.17;6.07;;;;;;;;;;4884917;29;20059;-95
2021/03/01 01:02:22;;;;;;;18.98;6.43;;;;;;;;;;4901969;29;20508;-95
2021/03/01 01:04:50;;;;;;;25.02;6.13;;;;;;;;;;4902665;29;20055;-96
2021/03/01 01:07:26;;;;;;;18.10;6.50;;;;;;;;;;4901136;29;20119;-95
2021/03/01 01:09:53;;;;;;;19.63;6.50;;;;;;;;;;4901812;29;20032;-95
2021/03/01 01:12:20;;;;;;;20.63;6.72;;;;;;;;;;4902214;29;20044;-95
2021/03/01 01:14:48;;;;;;;22.92;6.70;;;;;;;;;;4885916;29;20041;-95
2021/03/01 01:17:16;;;;;;;17.83;6.30;;;;;;;;;;4902282;29;20096;-95
2021/03/01 01:19:45;;;;;;;20.88;7.00;;;;;;;;;;4902480;29;20025;-95
2021/03/01 01:22:12;;;;;;;27.10;6.97;;;;;;;;;;4901406;29;20052;-95
2021/03/01 01:24:46;;;;;;;21.50;6.43;;;;;;;;;;4903084;29;20048;-95
2021/03/01 01:27:18;;;;;;;30.30;6.53;;;;;;;;;;4902505;29;20047;-95
2021/03/01 01:29:49;;;;;;;19.58;6.40;;;;;;;;;;4902878;29;20386;-94
2021/03/01 01:32:18;;;;;;;29.67;6.75;;;;;;;;;;4902361;29;20037;-95
2021/03/01 01:34:50;;;;;;;21.60;6.28;;;;;;;;;;4902898;29;20032;-95
2021/03/01 01:37:36;;;;;;;16.98;5.90;;;;;;;;;;4900829;29;20037;-95
2021/03/01 01:40:04;;;;;;;28.45;7.10;;;;;;;;;;4895376;29;20467;-95
2021/03/01 01:42:34;;;;;;;18.38;6.60;;;;;;;;;;4882719;29;20051;-95
2021/03/01 01:45:05;;;;;;;19.20;6.15;;;;;;;;;;4883167;29;20037;-95
2021/03/01 01:47:49;;;;;;;25.70;6.80;;;;;;;;;;4883296;29;20060;-95
2021/03/01 01:50:19;;;;;;;21.77;5.82;;;;;;;;;;4884278;29;20033;-95
2021/03/01 01:52:49;;;;;;;19.92;6.32;;;;;;;;;;4884142;29;20063;-95
2021/03/01 01:55:17;;;;;;;17.75;5.75;;;;;;;;;;4885209;29;20029;-93
2021/03/01 01:57:46;;;;;;;21.58;7.20;;;;;;;;;;4868278;29;20481;-92
2021/03/01 02:01:06;;;;;;;27.38;6.88;;;;;;;;;;4902822;29;20128;-93
2021/03/01 02:03:24;;;;;;;21.42;6.75;;;;;;;;;;4897385;29;20033;-93
2021/03/01 02:05:52;;;;;;;19.27;6.05;;;;;;;;;;4901750;29;20040;-95
2021/03/01 02:08:25;;;;;;;20.23;6.10;;;;;;;;;;4903376;29;20035;-95
2021/03/01 02:10:54;;;;;;;14.30;5.93;;;;;;;;;;4903312;29;20043;-95
2021/03/01 02:13:20;;;;;;;14.98;6.28;;;;;;;;;;4885602;29;20025;-95
2021/03/01 02:15:56;;;;;;;21.75;6.72;;;;;;;;;;4902814;29;20020;-95
2021/03/01 02:18:23;;;;;;;19.17;6.72;;;;;;;;;;4887169;29;20032;-95
2021/03/01 02:20:51;;;;;;;25.65;6.38;;;;;;;;;;4903468;29;20048;-95
2021/03/01 02:23:38;;;;;;;18.70;6.65;;;;;;;;;;4902001;29;20052;-95
2021/03/01 02:26:20;;;;;;;14.88;5.05;;;;;;;;;;4886386;29;20048;-96
2021/03/01 02:28:52;;;;;;;17.63;5.53;;;;;;;;;;4902707;29;20120;-95
2021/03/01 02:31:19;;;;;;;14.63;6.15;;;;;;;;;;4886572;29;20041;-95
2021/03/01 02:33:51;;;;;;;23.08;6.47;;;;;;;;;;4900416;29;20477;-95
2021/03/01 02:36:28;;;;;;;16.92;5.43;;;;;;;;;;4903278;29;20036;-95
2021/03/01 02:38:56;;;;;;;17.38;6.00;;;;;;;;;;4886428;29;20024;-95
2021/03/01 02:41:30;;;;;;;15.88;5.78;;;;;;;;;;4884810;29;20029;-95
2021/03/01 02:44:17;;;;;;;24.80;6.07;;;;;;;;;;4884562;29;20036;-95
2021/03/01 02:46:48;;;;;;;14.13;5.20;;;;;;;;;;4885185;29;20059;-95
2021/03/01 02:49:18;;;;;;;17.83;6.10;;;;;;;;;;4885736;29;20061;-96
2021/03/01 02:51:45;;;;;;;22.73;6.18;;;;;;;;;;4871354;29;20092;-95
2021/03/01 02:54:17;;;;;;;16.02;6.30;;;;;;;;;;4886984;29;20036;-95
2021/03/01 02:56:46;;;;;;;15.70;6.40;;;;;;;;;;4885697;29;20637;-95
2021/03/01 02:59:14;;;;;;;16.60;6.03;;;;;;;;;;4887189;29;20041;-95
2021/03/01 03:01:49;;;;;;;23.05;5.90;;;;;;;;;;4886624;29;20513;-95
2021/03/01 03:04:19;;;;;;;15.93;5.93;;;;;;;;;;4887376;29;20068;-95
2021/03/01 03:06:46;;;;;;;17.30;5.80;;;;;;;;;;4887087;29;20501;-95
2021/03/01 03:09:14;;;;;;;21.77;6.45;;;;;;;;;;4887313;29;20045;-95
2021/03/01 03:12:01;;;;;;;27.75;5.93;;;;;;;;;;4886804;29;20041;-95
2021/03/01 03:14:35;;;;;;;18.90;6.00;;;;;;;;;;4887446;29;20085;-95
2021/03/01 03:17:11;;;;;;;21.02;6.22;;;;;;;;;;4880168;29;20096;-95
2021/03/01 03:19:42;;;;;;;20.40;5.95;;;;;;;;;;4887040;29;20111;-95
2021/03/01 03:22:09;;;;;;;18.30;5.05;;;;;;;;;;4871295;29;20374;-95
2021/03/01 03:24:47;;;;;;;22.65;6.40;;;;;;;;;;4885975;29;20045;-92
2021/03/01 03:27:17;;;;;;;21.35;6.30;;;;;;;;;;4886636;29;20048;-95
2021/03/01 03:29:52;;;;;;;14.35;5.10;;;;;;;;;;4887222;29;20056;-95
2021/03/01 03:32:19;;;;;;;20.60;5.90;;;;;;;;;;4886724;29;20064;-95
2021/03/01 03:34:46;;;;;;;14.32;5.07;;;;;;;;;;4887184;29;20029;-95
2021/03/01 03:37:19;;;;;;;16.15;5.78;;;;;;;;;;4887680;29;20510;-95
2021/03/01 03:39:56;;;;;;;19.23;6.13;;;;;;;;;;4892306;29;20041;-95
2021/03/01 03:42:25;;;;;;;22.40;6.47;;;;;;;;;;4884722;29;20562;-95
2021/03/01 03:44:55;;;;;;;19.83;5.97;;;;;;;;;;4903894;29;20036;-95
2021/03/01 03:47:25;;;;;;;17.05;5.35;;;;;;;;;;4904945;29;20588;-95
2021/03/01 03:49:59;;;;;;;21.02;6.60;;;;;;;;;;4887595;29;20123;-95
2021/03/01 03:52:29;;;;;;;16.48;5.72;;;;;;;;;;4904420;29;20049;-95
2021/03/01 03:54:56;;;;;;;18.55;6.63;;;;;;;;;;4904102;29;20112;-95
2021/03/01 03:57:28;;;;;;;19.17;5.45;;;;;;;;;;4903601;29;20021;-95
2021/03/01 03:59:57;;;;;;;15.77;5.57;;;;;;;;;;4903265;29;20106;-95
2021/03/01 04:02:29;;;;;;;16.00;6.45;;;;;;;;;;4902992;29;20052;-95
2021/03/01 04:05:04;;;;;;;20.23;6.50;;;;;;;;;;4903616;29;20056;-95
2021/03/01 04:07:34;;;;;;;18.45;6.38;;;;;;;;;;4903901;29;20032;-95
2021/03/01 04:10:01;;;;;;;15.73;6.10;;;;;;;;;;4903179;29;20114;-95
2021/03/01 04:12:31;;;;;;;16.70;5.78;;;;;;;;;;4903726;29;20496;-95
2021/03/01 04:14:57;;;;;;;20.58;6.20;;;;;;;;;;4886432;29;20040;-95
2021/03/01 04:17:26;;;;;;;17.15;5.65;;;;;;;;;;4903374;29;20048;-95
2021/03/01 04:19:57;;;;;;;19.60;6.10;;;;;;;;;;4903383;29;20039;-95
2021/03/01 04:22:28;;;;;;;17.65;6.90;;;;;;;;;;4902840;29;20394;-95
2021/03/01 04:24:55;;;;;;;17.00;5.78;;;;;;;;;;4886619;29;20052;-95
2021/03/01 04:27:23;;;;;;;15.60;6.43;;;;;;;;;;4903773;29;20418;-95
2021/03/01 04:29:49;;;;;;;19.33;5.90;;;;;;;;;;4903381;29;20449;-95
2021/03/01 04:32:17;;;;;;;15.07;5.63;;;;;;;;;;4902682;29;20092;-95
2021/03/01 04:34:56;;;;;;;29.50;6.78;;;;;;;;;;4902706;29;20118;-95
2021/03/01 04:37:47;;;;;;;23.08;6.43;;;;;;;;;;4902801;29;20088;-95
2021/03/01 04:40:33;;;;;;;18.20;5.90;;;;;;;;;;4889736;29;20374;-94
2021/03/01 04:43:04;;;;;;;16.52;5.13;;;;;;;;;;4884173;29;20033;-95
2021/03/01 04:45:33;;;;;;;18.98;5.65;;;;;;;;;;4883739;29;20058;-95
2021/03/01 04:48:02;;;;;;;19.02;6.63;;;;;;;;;;4883810;29;20037;-95
2021/03/01 04:50:31;;;;;;;15.65;6.10;;;;;;;;;;4884038;29;20029;-95
2021/03/01 04:52:59;;;;;;;13.70;5.90;;;;;;;;;;4883642;29;20029;-95
2021/03/01 04:55:27;;;;;;;13.23;5.28;;;;;;;;;;4883858;29;20029;-95
2021/03/01 04:58:15;;;;;;;23.15;5.97;;;;;;;;;;4883848;29;20034;-95
2021/03/01 05:00:43;;;;;;;19.48;5.13;;;;;;;;;;4883493;29;20057;-95
2021/03/01 05:03:12;;;;;;;18.58;5.40;;;;;;;;;;4882793;29;20036;-95
2021/03/01 05:05:41;;;;;;;19.30;6.00;;;;;;;;;;4883637;29;20409;-95
2021/03/01 05:08:14;;;;;;;16.08;5.07;;;;;;;;;;4866670;29;20021;-95
2021/03/01 05:10:41;;;;;;;18.83;6.32;;;;;;;;;;4866204;29;20179;-95
2021/03/01 05:13:18;;;;;;;20.65;5.95;;;;;;;;;;4882577;29;20032;-95
2021/03/01 05:15:47;;;;;;;16.73;5.57;;;;;;;;;;4866722;29;20066;-95
2021/03/01 05:18:15;;;;;;;18.05;5.60;;;;;;;;;;4882776;29;20028;-95
2021/03/01 05:20:43;;;;;;;15.98;9.00;;;;;;;;;;4882275;29;20047;-95
2021/03/01 05:23:09;;;;;;;19.90;6.13;;;;;;;;;;4882936;29;20041;-94
2021/03/01 05:25:51;;;;;;;16.42;5.78;;;;;;;;;;4884595;29;20044;-95
2021/03/01 05:28:22;;;;;;;22.00;6.05;;;;;;;;;;4887943;29;20029;-95
2021/03/01 05:31:09;;;;;;;18.50;5.75;;;;;;;;;;4866149;29;20140;-95
2021/03/01 05:33:50;;;;;;;22.33;5.43;;;;;;;;;;4891707;29;20425;-95
2021/03/01 05:36:16;;;;;;;16.58;5.85;;;;;;;;;;4948584;24;20048;-93
2021/03/01 05:38:42;;;;;;;17.45;6.07;;;;;;;;;;4901232;29;20036;-93
2021/03/01 05:41:09;;;;;;;19.40;6.05;;;;;;;;;;4902618;29;20024;-93
2021/03/01 05:43:37;;;;;;;35.13;8.43;;;;;;;;;;4908199;29;20108;-93
2021/03/01 05:48:40;;;;;;;19.27;5.40;;;;;;;;;;5029040;23;20044;-93
2021/03/01 05:51:07;;;;;;;14.68;6.03;;;;;;;;;;4918927;29;20028;-94
2021/03/01 06:59:06;;;;;;;15.45;5.25;;;;;;;;;;667536;23;21663;-86
2021/03/01 07:01:42;;;;;;;19.10;6.07;;;;;;;;;;4883276;29;20072;-93
2021/03/01 07:04:09;;;;;;;20.95;6.68;;;;;;;;;;4903495;29;20088;-93
2021/03/01 07:06:35;;;;;;;16.88;6.25;;;;;;;;;;4902432;29;20499;-92
2021/03/01 07:09:02;;;;;;;14.70;5.90;;;;;;;;;;4902089;29;20031;-92
2021/03/01 07:11:35;;;;;;;17.58;6.13;;;;;;;;;;4902207;29;20033;-92
2021/03/01 07:14:08;;;;;;;27.10;7.45;;;;;;;;;;4900698;29;20028;-92
2021/03/01 07:16:34;;;;;;;;;;;;;;;;;;4902732;29;20107;-92
2021/03/01 07:19:00;;;;;;;12.57;5.70;;;;;;;;;;4903211;29;20375;-92
2021/03/01 07:21:27;;;;;;;21.42;7.05;;;;;;;;;;4903265;29;20092;-92
2021/03/01 07:23:53;;;;;;;19.35;6.25;;;;;;;;;;4903142;29;20036;-92
2021/03/01 07:26:24;;;;;;;16.58;6.13;;;;;;;;;;4903535;29;20500;-93
2021/03/01 07:28:51;;;;;;;25.27;6.75;;;;;;;;;;4901778;29;20540;-92
2021/03/01 07:31:18;;;;;;;23.45;6.75;;;;;;;;;;4903378;29;20111;-92
2021/03/01 07:33:45;;;;;;;21.52;6.38;;;;;;;;;;4903189;29;20527;-92
2021/03/01 07:36:12;;;;;;;21.40;6.95;;;;;;;;;;4902711;29;20025;-92
2021/03/01 07:38:39;;;;;;;21.02;6.15;;;;;;;;;;4902409;29;20025;-92
2021/03/01 07:41:05;;;;;;;20.65;6.90;;;;;;;;;;4897270;29;20039;-92
2021/03/01 07:43:37;;;;;;;19.98;6.85;;;;;;;;;;4882270;29;20029;-92
2021/03/01 07:46:04;;;;;;;23.83;6.05;;;;;;;;;;4882861;29;20044;-92
2021/03/01 07:48:37;;;;;;;17.20;6.22;;;;;;;;;;4883087;29;20033;-92
2021/03/01 07:51:03;;;;;;;21.50;6.95;;;;;;;;;;4883081;29;20040;-92
2021/03/01 07:53:49;;;;;;;26.25;6.63;;;;;;;;;;4898509;29;20029;-93
2021/03/01 07:56:24;;;;;;;16.85;6.05;;;;;;;;;;4886416;29;20377;-80
2021/03/01 07:58:54;;;;;;;17.30;6.57;;;;;;;;;;4892521;29;20109;-81
2021/03/01 08:01:21;;;;;;;29.40;7.40;;;;;;;;;;4900691;29;20088;-81
2021/03/01 08:03:47;;;;;;;21.95;6.88;;;;;;;;;;4916543;29;20092;-81
2021/03/01 08:06:14;;;;;;;21.00;6.70;;;;;;;;;;4916349;29;20433;-80
2021/03/01 08:08:44;;;;;;;21.10;6.47;;;;;;;;;;4896741;29;20047;-80
2021/03/01 08:11:12;;;;;;;24.50;7.95;;;;;;;;;;4894991;29;20032;-80
2021/03/01 08:13:38;;;;;;;22.80;7.35;;;;;;;;;;4896878;29;20025;-81
2021/03/01 08:16:18;;;;;;;24.95;7.07;;;;;;;;;;4882419;29;20017;-81
2021/03/01 08:18:55;;;;;;;15.55;6.57;;;;;;;;;;4891205;29;20552;-82
2021/03/01 08:21:22;;;;;;;18.63;6.20;;;;;;;;;;4892221;29;20045;-82
2021/03/01 08:23:50;;;;;;;22.30;8.10;;;;;;;;;;4896047;29;20040;-80
2021/03/01 08:26:30;;;;;;;19.45;6.90;;;;;;;;;;4882564;29;20040;-82
2021/03/01 08:28:57;;;;;;;15.13;6.32;;;;;;;;;;4895607;29;20064;-82
2021/03/01 08:31:24;;;;;;;23.35;7.72;;;;;;;;;;4899950;29;20092;-83
2021/03/01 08:33:50;;;;;;;21.45;7.35;;;;;;;;;;4916905;29;20055;-82
2021/03/01 08:36:16;;;;;;;16.95;6.70;;;;;;;;;;4901551;29;20033;-84
2021/03/01 08:38:46;;;;;;;23.60;7.85;;;;;;;;;;4891199;29;20040;-83
2021/03/01 08:41:33;;;;;;;22.67;7.63;;;;;;;;;;4876240;29;20052;-84
2021/03/01 08:44:00;;;;;;;24.15;8.05;;;;;;;;;;4876500;29;20036;-84
2021/03/01 08:46:26;;;;;;;19.50;7.40;;;;;;;;;;4898180;29;20032;-83
2021/03/01 08:48:53;;;;;;;18.63;7.10;;;;;;;;;;4889126;29;20074;-83
2021/03/01 08:51:19;;;;;;;18.67;7.10;;;;;;;;;;4905844;29;20107;-84
2021/03/01 08:53:47;;;;;;;24.63;7.55;;;;;;;;;;4913964;29;20036;-83
2021/03/01 08:56:25;;;;;;;19.95;7.63;;;;;;;;;;4915155;29;20040;-83
2021/03/01 08:58:51;;;;;;;24.65;7.00;;;;;;;;;;4879961;29;20025;-83
2021/03/01 09:01:18;;;;;;;20.17;7.30;;;;;;;;;;4905172;29;20060;-83
2021/03/01 09:03:45;;;;;;;24.02;7.30;;;;;;;;;;4898286;29;20064;-83
2021/03/01 09:06:12;;;;;;;21.38;6.85;;;;;;;;;;4893657;29;20024;-83
2021/03/01 09:08:55;;;;;;;21.40;6.65;;;;;;;;;;4893031;29;20039;-82
2021/03/01 09:11:21;;;;;;;19.27;7.07;;;;;;;;;;4897485;29;20028;-82
2021/03/01 09:13:49;;;;;;;26.33;8.73;;;;;;;;;;4895117;29;20032;-83
2021/03/01 09:16:25;;;;;;;22.73;7.25;;;;;;;;;;4904726;29;20551;-83
2021/03/01 09:19:00;;;;;;;19.60;6.63;;;;;;;;;;4914471;29;20519;-83
2021/03/01 09:21:26;;;;;;;19.15;6.47;;;;;;;;;;4896696;29;20032;-83
2021/03/01 09:23:53;;;;;;;16.65;7.00;;;;;;;;;;4912518;29;20052;-83
2021/03/01 09:26:25;;;;;;;14.40;6.45;;;;;;;;;;4877580;29;20021;-83
2021/03/01 09:28:52;;;;;;;13.93;7.03;;;;;;;;;;4907445;29;20040;-82
2021/03/01 09:31:19;;;;;;;21.30;7.38;;;;;;;;;;4902562;29;20036;-82
2021/03/01 09:33:45;;;;;;;21.38;6.90;;;;;;;;;;4883676;29;20405;-82
2021/03/01 09:36:13;;;;;;;19.85;6.70;;;;;;;;;;4912808;29;20039;-83
2021/03/01 09:38:40;;;;;;;19.95;6.35;;;;;;;;;;4879091;29;20386;-83
2021/03/01 09:41:06;;;;;;;15.30;5.55;;;;;;;;;;4895429;29;20060;-83
2021/03/01 09:43:36;;;;;;;18.05;5.97;;;;;;;;;;4895088;29;20029;-84
2021/03/01 09:46:03;;;;;;;18.27;6.47;;;;;;;;;;4890754;29;20033;-83
2021/03/01 09:48:31;;;;;;;13.63;5.57;;;;;;;;;;4893052;29;20039;-84
2021/03/01 09:50:58;;;;;;;22.10;9.43;;;;;;;;;;4895974;29;20033;-84
2021/03/01 09:53:25;;;;;;;14.95;6.35;;;;;;;;;;4898948;29;20080;-84
2021/03/01 09:55:53;;;;;;;13.50;5.47;;;;;;;;;;4892857;29;20050;-84
2021/03/01 09:58:25;;;;;;;22.98;7.07;;;;;;;;;;4912051;29;20059;-84
2021/03/01 10:00:51;;;;;;;14.63;5.50;;;;;;;;;;4904949;29;20532;-85
2021/03/01 10:03:18;;;;;;;22.15;6.38;;;;;;;;;;4905664;29;20040;-85
2021/03/01 10:05:48;;;;;;;12.55;5.20;;;;;;;;;;4900566;29;20021;-85
2021/03/01 10:08:19;;;;;;;17.60;5.53;;;;;;;;;;4891467;29;20115;-84
2021/03/01 10:10:46;;;;;;;12.45;4.80;;;;;;;;;;4902369;29;20024;-85
2021/03/01 10:13:12;;;;;;;13.55;5.25;;;;;;;;;;4897860;29;20033;-84
2021/03/01 10:15:47;;;;;;;13.05;4.65;;;;;;;;;;4894291;29;20025;-84
2021/03/01 10:18:15;;;;;;;14.80;5.22;;;;;;;;;;4914115;29;20044;-85
2021/03/01 10:20:56;;;;;;;14.73;4.75;;;;;;;;;;4889377;29;20493;-85
2021/03/01 10:23:33;;;;;;;14.45;4.47;;;;;;;;;;4900281;29;20092;-84
2021/03/01 10:26:14;;;;;;;14.35;4.90;;;;;;;;;;4898725;29;20020;-84
2021/03/01 10:28:41;;;;;;;12.15;5.10;;;;;;;;;;4887142;29;20385;-84
2021/03/01 10:31:12;;;;;;;17.55;5.63;;;;;;;;;;4907571;29;20037;-83
2021/03/01 10:33:57;;;;;;;13.13;5.35;;;;;;;;;;4916536;29;20555;-84
2021/03/01 10:36:25;;;;;;;16.92;6.05;;;;;;;;;;4916037;29;20032;-84
2021/03/01 10:38:52;;;;;;;16.30;6.40;;;;;;;;;;4894435;29;20036;-84
2021/03/01 10:41:19;;;;;;;12.82;4.82;;;;;;;;;;4899427;29;20099;-85
2021/03/01 10:44:12;;;;;;;13.23;5.40;;;;;;;;;;4899191;29;20477;-84
2021/03/01 10:46:41;;;;;;;12.85;5.05;;;;;;;;;;4876791;29;20045;-85
2021/03/01 10:49:14;;;;;;;15.25;4.75;;;;;;;;;;4886429;29;20053;-85
2021/03/01 10:51:41;;;;;;;13.18;5.20;;;;;;;;;;4887780;29;20124;-85
2021/03/01 10:54:07;;;;;;;12.70;5.32;;;;;;;;;;4880149;29;20416;-84
2021/03/01 10:56:33;;;;;;;12.18;5.78;;;;;;;;;;4898681;29;20028;-86
2021/03/01 10:58:59;;;;;;;17.15;5.72;;;;;;;;;;4894622;29;20561;-85
2021/03/01 11:01:45;;;;;;;9.82;4.28;;;;;;;;;;4897012;29;20060;-86
2021/03/01 11:04:13;;;;;;;11.23;5.00;;;;;;;;;;4893725;29;20029;-85
2021/03/01 11:06:40;;;;;;;17.10;5.40;;;;;;;;;;4894552;29;20552;-86
2021/03/01 11:09:07;;;;;;;12.23;5.30;;;;;;;;;;4908008;29;20526;-86
2021/03/01 11:11:34;;;;;;;10.88;4.63;;;;;;;;;;4913853;29;20032;-86
2021/03/01 11:14:00;;;;;;;11.15;4.75;;;;;;;;;;4895821;29;20038;-85
2021/03/01 11:16:26;;;;;;;14.45;4.95;;;;;;;;;;4881318;29;20028;-86
2021/03/01 11:18:52;;;;;;;12.85;5.25;;;;;;;;;;4891363;29;20492;-86
2021/03/01 11:21:24;;;;;;;11.07;3.72;;;;;;;;;;4877941;29;20036;-87
2021/03/01 11:23:57;;;;;;;12.05;4.20;;;;;;;;;;4891526;29;20635;-86
2021/03/01 11:26:26;;;;;;;12.00;4.70;;;;;;;;;;4883213;29;20024;-87
2021/03/01 11:28:53;;;;;;;15.15;5.07;;;;;;;;;;4893977;29;20055;-87
2021/03/01 11:31:19;;;;;;;12.77;4.82;;;;;;;;;;4901431;29;20060;-87
2021/03/01 11:33:46;;;;;;;13.10;4.53;;;;;;;;;;4896182;29;20111;-87
2021/03/01 11:36:12;;;;;;;12.85;4.75;;;;;;;;;;4882322;29;20028;-87
2021/03/01 11:38:39;;;;;;;13.55;4.65;;;;;;;;;;4875265;29;20044;-87
2021/03/01 11:41:05;;;;;;;13.15;4.85;;;;;;;;;;4885974;29;20037;-89
2021/03/01 11:43:32;;;;;;;11.43;4.28;;;;;;;;;;4893673;29;20052;-88
2021/03/01 11:45:58;;;;;;;13.85;4.60;;;;;;;;;;4894955;29;20086;-88
2021/03/01 11:48:24;;;;;;;13.00;4.63;;;;;;;;;;4886409;29;20726;-87
2021/03/01 11:50:51;;;;;;;11.40;4.28;;;;;;;;;;4892028;29;20058;-88
2021/03/01 11:53:17;;;;;;;9.75;4.85;;;;;;;;;;4882868;29;20025;-89
2021/03/01 11:55:44;;;;;;;11.43;3.58;;;;;;;;;;4883820;29;20046;-88
2021/03/01 11:58:11;;;;;;;8.23;2.97;;;;;;;;;;4886294;29;20056;-87
2021/03/01 12:00:40;;;;;;;8.30;3.35;;;;;;;;;;4897069;29;20520;-86
2021/03/01 12:03:06;;;;;;;11.50;3.90;;;;;;;;;;4882702;29;20041;-86
2021/03/01 12:05:33;;;;;;;11.07;3.38;;;;;;;;;;4910213;29;20404;-87
2021/03/01 12:08:00;;;;;;;15.82;3.42;;;;;;;;;;4909540;29;20025;-87
2021/03/01 12:10:26;;;;;;;9.75;3.90;;;;;;;;;;4882146;29;20036;-87
2021/03/01 12:12:58;;;;;;;8.95;3.92;;;;;;;;;;4877531;29;20041;-88
2021/03/01 12:15:24;;;;;;;14.20;3.43;;;;;;;;;;4894401;29;20028;-87
2021/03/01 12:17:50;;;;;;;10.60;3.40;;;;;;;;;;4880074;29;20725;-89
2021/03/01 12:20:17;;;;;;;11.15;3.42;;;;;;;;;;4879716;29;20509;-88
2021/03/01 12:22:43;;;;;;;9.85;3.75;;;;;;;;;;4885378;29;20496;-88
2021/03/01 12:25:09;;;;;;;10.13;3.53;;;;;;;;;;4878433;29;20044;-87
2021/03/01 12:27:35;;;;;;;14.32;4.00;;;;;;;;;;4885274;29;20032;-89
2021/03/01 12:30:02;;;;;;;11.52;3.72;;;;;;;;;;4900004;29;20105;-88
2021/03/01 12:32:28;;;;;;;12.65;3.63;;;;;;;;;;4879713;29;20036;-87
2021/03/01 12:34:56;;;;;;;13.52;5.60;;;;;;;;;;4894385;29;20052;-88
2021/03/01 12:37:22;;;;;;;10.43;3.60;;;;;;;;;;4896716;29;20017;-88
2021/03/01 12:39:48;;;;;;;12.93;4.60;;;;;;;;;;4905178;29;20029;-89
2021/03/01 12:42:14;;;;;;;10.18;3.80;;;;;;;;;;4877677;29;20028;-89
2021/03/01 12:44:40;;;;;;;14.13;3.40;;;;;;;;;;4879683;29;20710;-89
2021/03/01 12:47:06;;;;;;;8.20;3.38;;;;;;;;;;4890704;29;20025;-89
2021/03/01 12:49:32;;;;;;;12.52;3.47;;;;;;;;;;4896726;29;20040;-87
2021/03/01 12:51:59;;;;;;;9.77;3.67;;;;;;;;;;4879880;29;20033;-88
2021/03/01 12:54:25;;;;;;;14.85;4.07;;;;;;;;;;4873744;29;20025;-88
2021/03/01 12:56:51;;;;;;;11.65;3.28;;;;;;;;;;4896575;29;20053;-85
2021/03/01 12:59:17;;;;;;;12.70;3.22;;;;;;;;;;4894315;29;20025;-86
2021/03/01 13:01:43;;;;;;;11.95;3.72;;;;;;;;;;4895482;29;20039;-86
2021/03/01 13:04:10;;;;;;;7.43;2.80;;;;;;;;;;4893100;29;20033;-86
2021/03/01 13:06:36;;;;;;;12.95;4.10;;;;;;;;;;4877575;29;20032;-86
2021/03/01 13:09:02;;;;;;;9.75;3.40;;;;;;;;;;4879942;29;20188;-86
2021/03/01 13:11:28;;;;;;;9.95;2.85;;;;;;;;;;4895751;29;20057;-86
2021/03/01 13:13:54;;;;;;;8.57;3.30;;;;;;;;;;4885787;29;20033;-86
2021/03/01 13:16:20;;;;;;;11.80;3.20;;;;;;;;;;4886799;29;20017;-86
2021/03/01 13:18:46;;;;;;;12.00;3.25;;;;;;;;;;4894013;29;20507;-87
2021/03/01 13:21:12;;;;;;;14.75;3.35;;;;;;;;;;4878010;29;20032;-86
2021/03/01 13:23:40;;;;;;;8.40;3.05;;;;;;;;;;4898439;29;20048;-86
2021/03/01 13:26:06;;;;;;;13.27;3.42;;;;;;;;;;4899441;29;20507;-87
2021/03/01 13:28:32;;;;;;;9.07;2.95;;;;;;;;;;4881807;29;20044;-86
2021/03/01 13:30:59;;;;;;;9.02;3.35;;;;;;;;;;4879622;29;20064;-86
2021/03/01 13:33:25;;;;;;;11.60;3.10;;;;;;;;;;4873603;29;21087;-86
2021/03/01 13:35:52;;;;;;;8.80;2.78;;;;;;;;;;4891597;29;20029;-86
2021/03/01 13:38:18;;;;;;;10.52;3.20;;;;;;;;;;4893179;29;20036;-86
2021/03/01 13:40:44;;;;;;;11.05;3.00;;;;;;;;;;4882993;29;20024;-86
2021/03/01 13:43:10;;;;;;;11.90;3.20;;;;;;;;;;4893771;29;20497;-86
2021/03/01 13:45:36;;;;;;;13.60;3.17;;;;;;;;;;4899647;29;20037;-86
2021/03/01 13:48:03;;;;;;;17.05;3.25;;;;;;;;;;4892820;29;20028;-86
2021/03/01 13:50:29;;;;;;;11.50;2.97;;;;;;;;;;4892522;29;20144;-86
2021/03/01 13:52:55;;;;;;;8.45;3.28;;;;;;;;;;4891058;29;20048;-86
2021/03/01 13:55:21;;;;;;;11.88;3.60;;;;;;;;;;4891654;29;20037;-86
2021/03/01 13:57:47;;;;;;;10.95;2.70;;;;;;;;;;4900346;29;20107;-86
2021/03/01 14:00:14;;;;;;;10.25;2.85;;;;;;;;;;4891220;29;20081;-86
2021/03/01 14:02:40;;;;;;;10.65;3.05;;;;;;;;;;4897485;29;20037;-86
2021/03/01 14:05:07;;;;;;;9.48;2.83;;;;;;;;;;4893363;29;20116;-86
2021/03/01 14:07:33;;;;;;;10.85;3.17;;;;;;;;;;4867471;29;20029;-86
2021/03/01 14:10:00;;;;;;;16.00;4.25;;;;;;;;;;4900651;29;20719;-87
2021/03/01 14:12:26;;;;;;;7.43;2.95;;;;;;;;;;4896052;29;20100;-87
2021/03/01 14:14:52;;;;;;;11.35;3.28;;;;;;;;;;4891674;29;20033;-86
2021/03/01 14:17:18;;;;;;;10.40;3.75;;;;;;;;;;4889640;29;20051;-86
2021/03/01 14:19:44;;;;;;;14.13;3.90;;;;;;;;;;4892118;29;20120;-86
2021/03/01 14:22:11;;;;;;;8.55;3.35;;;;;;;;;;4897050;29;20120;-87
2021/03/01 14:24:37;;;;;;;11.40;3.05;;;;;;;;;;4910150;29;20396;-87
2021/03/01 14:27:03;;;;;;;13.88;3.22;;;;;;;;;;4895954;29;20036;-86
2021/03/01 14:29:29;;;;;;;11.93;2.95;;;;;;;;;;4899013;29;20072;-86
2021/03/01 14:31:55;;;;;;;13.10;3.08;;;;;;;;;;4877822;29;20040;-86
2021/03/01 14:34:21;;;;;;;9.18;2.75;;;;;;;;;;4899261;29;20111;-86
2021/03/01 14:36:48;;;;;;;15.65;3.47;;;;;;;;;;4888828;29;20044;-86
2021/03/01 14:39:17;;;;;;;9.20;2.75;;;;;;;;;;4879834;29;20040;-86
2021/03/01 14:41:44;;;;;;;9.57;2.92;;;;;;;;;;4893295;29;20106;-86
2021/03/01 14:44:11;;;;;;;13.50;3.28;;;;;;;;;;4895669;29;20088;-86
2021/03/01 14:46:37;;;;;;;9.68;2.83;;;;;;;;;;4899576;29;20036;-86
2021/03/01 14:49:05;;;;;;;7.85;3.20;;;;;;;;;;4893642;29;20083;-86
2021/03/01 14:51:32;;;;;;;14.43;3.30;;;;;;;;;;4897833;29;20028;-86
2021/03/01 14:53:59;;;;;;;11.15;3.03;;;;;;;;;;4896059;29;20428;-87
2021/03/01 14:56:25;;;;;;;11.52;3.30;;;;;;;;;;4886725;29;20123;-88
2021/03/01 14:58:51;;;;;;;11.65;3.40;;;;;;;;;;4886632;29;20029;-88
2021/03/01 15:01:18;;;;;;;9.65;2.65;;;;;;;;;;4897680;29;20420;-88
2021/03/01 15:03:44;;;;;;;9.55;3.00;;;;;;;;;;4898295;29;20411;-88
2021/03/01 15:06:10;;;;;;;11.57;3.22;;;;;;;;;;4886675;29;20032;-87
2021/03/01 15:08:36;;;;;;;11.57;3.00;;;;;;;;;;4897644;29;20040;-87
2021/03/01 15:11:03;;;;;;;9.20;2.67;;;;;;;;;;4883587;29;20037;-87
2021/03/01 15:13:31;;;;;;;10.15;3.08;;;;;;;;;;4896542;29;20058;-86
2021/03/01 15:15:58;;;;;;;11.40;3.35;;;;;;;;;;4879324;29;20461;-87
2021/03/01 15:18:24;;;;;;;10.95;3.13;;;;;;;;;;4897616;29;20028;-87
2021/03/01 15:20:51;;;;;;;8.88;2.85;;;;;;;;;;4898497;29;20028;-88
2021/03/01 15:23:17;;;;;;;13.55;3.17;;;;;;;;;;4881459;29;20037;-87
2021/03/01 15:25:43;;;;;;;16.60;4.05;;;;;;;;;;4884426;29;20037;-87
2021/03/01 15:28:10;;;;;;;9.43;3.67;;;;;;;;;;4888389;29;20500;-85
2021/03/01 15:30:36;;;;;;;11.77;2.80;;;;;;;;;;4880334;29;20033;-86
2021/03/01 15:33:02;;;;;;;9.77;2.97;;;;;;;;;;4879414;29;20041;-86
2021/03/01 15:35:29;;;;;;;12.50;3.45;;;;;;;;;;4887059;29;20540;-85
2021/03/01 15:37:55;;;;;;;10.95;3.20;;;;;;;;;;4894010;29;20039;-86
2021/03/01 15:40:22;;;;;;;9.88;2.78;;;;;;;;;;4898549;29;20545;-85
2021/03/01 15:42:48;;;;;;;10.00;2.80;;;;;;;;;;4881798;29;20052;-85
2021/03/01 15:45:14;;;;;;;13.20;2.92;;;;;;;;;;4906083;29;20028;-86
2021/03/01 15:47:40;;;;;;;10.73;3.13;;;;;;;;;;4884612;29;20033;-85
2021/03/01 15:50:07;;;;;;;8.80;2.92;;;;;;;;;;4899745;29;20035;-86